Walla Walla Regional Airport
KALW : now visible

Airfield :











YOU CAN JOIN US ON...

 
LOGIN :

Register | Disclaimer

   EN    FR    IT 

 









Legend :    VFR   Marginal VFR   IFR   Intensive IFR   Very Intensive IFR
Visi :
Ceiling :
>= 8 km
>= 3000ft
5 to 8 km
1000 to 3000 ft
1500m to 5 km
500 to 1000 ft
800 to 1500m
200 to 500 ft
< 800m
< 200 ft
Symbols :   Thunderstorms  Fog  Heavy snow  Heavy precipitations  Wind > 20 kt






- Airport Elevation : 1194 ft
- IATA code : ALW


KALW - Walla Walla Regional

CURRENT METAR :
  • 041453Z 00000KT 10SM OVC008 M06/M08 A3005 RMK AO2 SLP193 T10611078 56024

EXPIRED METARs :
  • 041441Z 00000KT 10SM OVC009 M06/M08 A3005 RMK AO2 CIG 008V011 T10611083
  • 041418Z 08003KT 10SM OVC010 M07/M08 A3005 RMK AO2 CIG 008V011 T10671083
  • 041353Z 00000KT 10SM OVC008 M07/M08 A3006 RMK AO2 SLP199 T10671083
  • 041338Z AUTO 00000KT 10SM OVC009 M07/M08 A3008 RMK AO2 CIG 007V011 T10671083
  • 041253Z AUTO 00000KT 10SM OVC011 M07/M08 A3009 RMK AO2 SLP209 T10671083
  • 041241Z AUTO 00000KT 10SM OVC011 M07/M09 A3010 RMK AO2 T10721089

TAF KALW
Valid from the 04 at 14:00 until the 05 at 12:00 UTC


041337Z 0414/0512 VRB04KT P6SM OVC008
TEMPO 0414/0418 3SM -SN BR OVC015
FM042200 VRB04KT 1SM -SN BR OVC007
FM050600 VRB04KT 2SM -SN BR OVC015
KZSE FIR / North America



MET'MAP, your aeronautical weather chart ! - Copyright ORBIFLY December 2007 - Disclaimer

ORBIFLY MET'MAP TEAM :

Programming & Development : Alexandra Zaïnal
Original concept : Baudouin d'Aumeries
Technical & hardware support : Manuel Goepfert
Assistance : Marc-Olivier Méhu




SOURCES & CREDITS :

   NOAA       Earth
Advisory